Notice: Undefined index: language in /storage/ssd5/510/10272510/public_html/vam1/vam/index.php on line 25
Brand Clickair VA

 METAR AND TAF INFORMATION
METAR FOR LERS
ADDS - METARS form results

(0253 UTC 26 September 2020)
Data provider http://aviationweather.gov/metar/data/
 
METAR text: LERS 260230Z AUTO 29008KT 250V330 CAVOK 14/05 Q1015
Conditions at: LERS (REUS (CIV/MIL) , ES) observed 0230 UTC 26 September 2020
Temperature: 14.0°C (57°F)
Dewpoint: 5.0°C (41°F) [RH = 55%]
Pressure (altimeter): 29.97 inches Hg (1015.0 mb)
Winds: from the WNW (290 degrees) at 9 MPH (8 knots; 4.1 m/s)
Visibility: 6 or more miles (10+ km)
Ceiling: ceiling and visibility are OK
Clouds: unknown
Weather: no significant weather observed at this time

METAR text: LERS 260200Z AUTO 29005KT 190V360 CAVOK 14/05 Q1016
Conditions at: LERS (REUS (CIV/MIL) , ES) observed 0200 UTC 26 September 2020
Temperature: 14.0°C (57°F)
Dewpoint: 5.0°C (41°F) [RH = 55%]
Pressure (altimeter): 30.00 inches Hg (1016.0 mb)
Winds: from the WNW (290 degrees) at 6 MPH (5 knots; 2.6 m/s)
Visibility: 6 or more miles (10+ km)
Ceiling: ceiling and visibility are OK
Clouds: unknown
Weather: no significant weather observed at this time

Forecast for: LERS (REUS (CIV/MIL) , ES)
Text: TAF LERS 260200Z 2603/2703 27020KT 9999 FEW030 TX26/2612Z TN12/2606Z
Forecast period: 0300 UTC 26 September 2020 to 0300 UTC 27 September 2020
Forecast type: FROM: standard forecast or significant change
Winds: from the W (270 degrees) at 23 MPH (20 knots; 10.3 m/s)
Visibility: 6 or more miles (10+ km)
Ceiling: at least 12,000 feet AGL
Clouds: few clouds at 3000 feet AGL
Weather: no significant weather forecast for this period
Text: PROB40
Forecast period: 0300 to 1600 UTC 26 September 2020
Forecast type: TEMPORARY: The following changes expected for less than half the time period
Winds: from the W (270 degrees) at 23 MPH (20 knots; 10.3 m/s)
gusting to 34 MPH (30 knots; 15.4 m/s)
Visibility: missing
Ceiling: unknown
Clouds: missing
Weather: no significant weather forecast for this period

 AIRPORT MAP

 RUNWAY INFORMATION
Runway 07 Runway length 8054 ft Runway width 148 ft
Runway elevation 231 ft Runway displaced threshold 853 ft Runway heading 69
Runway 25 Runway length 8054 ft Runway width 148 ft
Runway elevation 234 ft Runway displaced threshold 0 ft Runway heading 249
Runway 12 Runway length 3117 ft Runway width 115 ft
Runway elevation 226 ft Runway displaced threshold 0 ft Runway heading 111
Runway 30 Runway length 3117 ft Runway width 115 ft
Runway elevation 198 ft Runway displaced threshold 0 ft Runway heading 291

 AIRPORT FREQUENCIES
Type APP Name APP Frequency 118.15 MHZ
Type GND Name GND Frequency 121.7 MHZ
Type TWR Name TWR Frequency 118.15 MHZ

 AIRPORT NEAR NAVIGATION AIDS
Type VOR-DME Name Reus Frequency 114200 KHZ
Type NDB Name Reus Frequency 424 KHZ



Powered by Virtual Airlines Manager [v2.6.2]